createdAt,value
2018-08-25T00:00:44.363Z,38.77
2018-08-25T00:03:12.816Z,38.75
2018-08-25T00:05:41.193Z,39.50
2018-08-25T00:08:09.511Z,39.40
2018-08-25T00:10:37.975Z,38.72
2018-08-25T00:13:06.330Z,38.73
2018-08-25T00:15:34.664Z,39.39
2018-08-25T00:18:03.606Z,38.79
2018-08-25T00:20:31.947Z,39.47
2018-08-25T00:23:00.290Z,39.10
2018-08-25T00:25:28.633Z,39.43
2018-08-25T00:27:56.971Z,38.66
2018-08-25T00:30:30.510Z,39.57
2018-08-25T00:32:58.850Z,39.41
2018-08-25T00:35:27.169Z,38.88
2018-08-25T00:37:55.527Z,38.96
2018-08-25T00:40:23.838Z,39.20
2018-08-25T00:42:52.188Z,39.99
2018-08-25T00:45:20.587Z,39.80
2018-08-25T00:47:49.069Z,39.93
2018-08-25T00:50:17.336Z,40.20
2018-08-25T00:52:45.670Z,40.37
2018-08-25T00:55:14.075Z,40.71
2018-08-25T00:57:42.581Z,40.20
2018-08-25T01:00:10.926Z,39.87
2018-08-25T01:02:39.227Z,40.35
2018-08-25T01:05:07.973Z,40.47
2018-08-25T01:07:36.403Z,39.19
2018-08-25T01:10:04.866Z,38.81
2018-08-25T01:12:33.306Z,38.52
2018-08-25T01:15:01.671Z,38.79
2018-08-25T01:17:30.079Z,37.62
2018-08-25T01:19:58.467Z,37.67
2018-08-25T01:22:37.934Z,38.18
2018-08-25T01:25:06.984Z,37.65
2018-08-25T01:27:35.546Z,36.96
2018-08-25T01:30:04.234Z,36.64
2018-08-25T01:32:32.590Z,37.30
2018-08-25T01:35:00.919Z,37.52
2018-08-25T01:37:29.251Z,37.96
2018-08-25T01:39:57.590Z,37.78
2018-08-25T01:42:25.930Z,37.85
2018-08-25T01:44:57.084Z,36.90
2018-08-25T01:47:25.406Z,37.79
2018-08-25T01:50:00.455Z,37.15
2018-08-25T01:52:29.045Z,37.21
2018-08-25T01:54:57.378Z,37.03
2018-08-25T01:57:25.702Z,38.15
2018-08-25T01:59:54.028Z,37.37
2018-08-25T02:02:22.388Z,38.11
2018-08-25T02:04:50.776Z,38.19
2018-08-25T02:07:19.307Z,38.21
2018-08-25T02:09:47.718Z,37.44
2018-08-25T02:12:16.046Z,38.23
2018-08-25T02:14:44.329Z,38.00
2018-08-25T02:17:12.622Z,37.82
2018-08-25T02:19:40.994Z,38.40
2018-08-25T02:22:40.130Z,38.29
2018-08-25T02:25:08.444Z,38.32
2018-08-25T02:27:36.740Z,38.34
2018-08-25T02:30:05.196Z,38.56
2018-08-25T02:32:33.510Z,38.46
2018-08-25T02:35:01.865Z,37.76
2018-08-25T02:37:30.218Z,38.47
2018-08-25T02:39:58.540Z,38.66
2018-08-25T02:42:26.934Z,38.12
2018-08-25T02:44:55.235Z,37.82
2018-08-25T02:47:23.565Z,37.85
2018-08-25T02:49:51.986Z,38.30
2018-08-25T02:52:20.304Z,38.46
2018-08-25T02:54:48.626Z,38.42
2018-08-25T02:57:16.952Z,38.14
2018-08-25T02:59:45.310Z,38.65
2018-08-25T03:02:13.666Z,37.86
2018-08-25T03:04:42.330Z,38.47
2018-08-25T03:07:10.937Z,38.17
2018-08-25T03:09:39.262Z,38.76
2018-08-25T03:12:07.655Z,38.10
2018-08-25T03:14:36.070Z,38.83
2018-08-25T03:17:04.434Z,38.82
2018-08-25T03:19:32.787Z,38.05
2018-08-25T03:22:01.121Z,39.04
2018-08-25T03:24:29.502Z,38.47
2018-08-25T03:26:57.922Z,38.28
2018-08-25T03:29:26.266Z,38.28
2018-08-25T03:31:54.587Z,39.32
2018-08-25T03:34:22.990Z,38.36
2018-08-25T03:36:51.290Z,39.02
2018-08-25T03:39:19.595Z,38.23
2018-08-25T03:41:47.932Z,39.13
2018-08-25T03:44:16.243Z,38.62
2018-08-25T03:46:44.808Z,39.04
2018-08-25T03:49:13.103Z,38.76
2018-08-25T03:51:41.403Z,39.28
2018-08-25T03:54:09.718Z,38.89
2018-08-25T03:56:38.024Z,39.30
2018-08-25T03:59:06.526Z,39.07
2018-08-25T04:01:34.889Z,39.98
2018-08-25T04:04:03.160Z,40.07
2018-08-25T04:06:31.507Z,39.34
2018-08-25T04:08:59.851Z,39.43
2018-08-25T04:11:28.196Z,39.63
2018-08-25T04:13:56.474Z,39.63
2018-08-25T04:16:24.778Z,40.49
2018-08-25T04:18:53.090Z,40.49
2018-08-25T04:21:21.425Z,40.58
2018-08-25T04:23:49.739Z,39.71
2018-08-25T04:26:18.090Z,40.17
2018-08-25T04:28:46.378Z,40.95
2018-08-25T04:31:14.704Z,41.07
2018-08-25T04:33:42.999Z,40.79
2018-08-25T04:36:11.335Z,40.91
2018-08-25T04:38:39.683Z,40.51
2018-08-25T04:41:07.998Z,41.22
2018-08-25T04:43:36.347Z,40.91
2018-08-25T04:46:04.678Z,41.01
2018-08-25T04:48:32.992Z,41.72
2018-08-25T04:51:01.295Z,41.04
2018-08-25T04:53:29.662Z,41.73
2018-08-25T04:55:58.033Z,41.81
2018-08-25T04:58:26.406Z,41.28
2018-08-25T05:00:54.726Z,41.64
2018-08-25T05:03:23.067Z,40.97
2018-08-25T05:05:51.367Z,42.44
2018-08-25T05:08:20.384Z,41.71
2018-08-25T05:10:48.702Z,42.15
2018-08-25T05:13:17.112Z,41.51
2018-08-25T05:15:45.472Z,42.13
2018-08-25T05:18:13.805Z,42.45
2018-08-25T05:20:42.095Z,42.60
2018-08-25T05:23:10.416Z,42.62
2018-08-25T05:25:38.734Z,42.04
2018-08-25T05:28:07.052Z,42.28
2018-08-25T05:30:35.389Z,42.74
2018-08-25T05:33:03.799Z,42.87
2018-08-25T05:35:32.126Z,42.57
2018-08-25T05:38:00.431Z,42.69
2018-08-25T05:40:28.860Z,43.57
2018-08-25T05:42:57.247Z,42.80
2018-08-25T05:45:25.583Z,43.02
2018-08-25T05:47:53.911Z,44.08
2018-08-25T05:50:22.672Z,43.22
2018-08-25T05:52:50.971Z,43.75
2018-08-25T05:55:19.502Z,43.22
2018-08-25T05:57:47.947Z,42.62
2018-08-25T06:00:16.194Z,43.44
2018-08-25T06:02:44.558Z,43.42
2018-08-25T06:05:12.916Z,42.90
2018-08-25T06:07:41.353Z,43.68
2018-08-25T06:10:09.487Z,43.61
2018-08-25T06:12:37.831Z,43.15
2018-08-25T06:15:06.263Z,43.11
2018-08-25T06:17:34.738Z,42.91
2018-08-25T06:23:02.160Z,44.14
2018-08-25T06:25:30.446Z,43.50
2018-08-25T06:27:58.883Z,43.60
2018-08-25T06:30:27.171Z,43.87
2018-08-25T06:32:55.518Z,44.09
2018-08-25T06:35:23.865Z,44.36
2018-08-25T06:37:52.297Z,44.03
2018-08-25T06:40:20.626Z,43.41
2018-08-25T06:42:49.059Z,43.45
2018-08-25T06:45:17.407Z,43.08
2018-08-25T06:47:45.759Z,43.11
2018-08-25T06:50:14.111Z,44.19
2018-08-25T06:52:42.474Z,43.81
2018-08-25T06:55:10.838Z,43.64
2018-08-25T06:57:39.174Z,43.60
2018-08-25T07:00:07.803Z,42.89
2018-08-25T07:02:36.158Z,43.32
2018-08-25T07:05:04.591Z,43.00
2018-08-25T07:07:32.898Z,43.90
2018-08-25T07:10:01.247Z,43.04
2018-08-25T07:12:29.626Z,43.86
2018-08-25T07:14:58.610Z,43.72
2018-08-25T07:17:26.986Z,43.59
2018-08-25T07:19:55.291Z,42.60
2018-08-25T07:22:23.641Z,42.51
2018-08-25T07:24:51.918Z,42.11
2018-08-25T07:27:20.187Z,42.70
2018-08-25T07:29:48.485Z,43.29
2018-08-25T07:32:16.799Z,43.76
2018-08-25T07:34:45.055Z,43.55
2018-08-25T07:37:13.367Z,42.69
2018-08-25T07:39:41.638Z,43.08
2018-08-25T07:42:09.956Z,42.63
2018-08-25T07:44:38.333Z,42.83
2018-08-25T07:47:06.634Z,43.78
2018-08-25T07:49:34.929Z,43.06
2018-08-25T07:52:03.190Z,43.38
2018-08-25T07:54:31.526Z,43.19
2018-08-25T07:56:59.792Z,43.47
2018-08-25T07:59:28.106Z,43.12
2018-08-25T08:01:56.371Z,43.19
2018-08-25T08:04:24.674Z,42.95
2018-08-25T08:06:53.030Z,42.88
2018-08-25T08:09:21.359Z,43.26
2018-08-25T08:11:49.696Z,43.13
2018-08-25T08:14:18.030Z,42.89
2018-08-25T08:16:46.338Z,43.18
2018-08-25T08:19:14.650Z,43.28
2018-08-25T08:21:42.955Z,43.13
2018-08-25T08:24:11.238Z,42.85
2018-08-25T08:26:40.186Z,42.56
2018-08-25T08:29:08.495Z,42.25
2018-08-25T08:31:36.762Z,43.02
2018-08-25T08:34:05.041Z,44.04
2018-08-25T08:36:33.842Z,44.15
2018-08-25T08:39:02.110Z,44.22
2018-08-25T08:41:30.408Z,43.77
2018-08-25T08:43:58.846Z,44.00
2018-08-25T08:46:32.472Z,43.80
2018-08-25T08:49:00.798Z,44.50
2018-08-25T08:51:29.110Z,44.78
2018-08-25T08:53:57.439Z,44.88
2018-08-25T08:56:25.772Z,44.28
2018-08-25T08:58:54.029Z,44.37
2018-08-25T09:01:22.283Z,45.13
2018-08-25T09:03:50.598Z,44.48
2018-08-25T09:06:18.938Z,45.50
2018-08-25T09:08:47.219Z,45.49
2018-08-25T09:11:15.576Z,45.58
2018-08-25T09:13:44.092Z,45.84
2018-08-25T09:16:12.423Z,45.41
2018-08-25T09:18:40.738Z,45.23
2018-08-25T09:21:10.122Z,44.95
2018-08-25T09:23:38.430Z,45.52
2018-08-25T09:26:06.863Z,45.02
2018-08-25T09:28:35.126Z,44.30
2018-08-25T09:31:03.419Z,45.01
2018-08-25T09:33:31.770Z,43.97
2018-08-25T09:36:00.174Z,44.77
2018-08-25T09:38:28.394Z,44.49
2018-08-25T09:40:56.682Z,44.38
2018-08-25T09:43:24.990Z,43.49
2018-08-25T09:45:53.314Z,42.91
2018-08-25T09:48:21.631Z,43.84
2018-08-25T09:50:49.923Z,43.32
2018-08-25T09:53:18.291Z,43.60
2018-08-25T09:55:46.675Z,43.24
2018-08-25T09:58:14.935Z,43.71
2018-08-25T10:00:43.270Z,43.24
2018-08-25T10:03:11.542Z,43.49
2018-08-25T10:05:39.814Z,43.88
2018-08-25T10:08:08.454Z,42.93
2018-08-25T10:10:36.734Z,43.46
2018-08-25T10:13:05.041Z,43.30
2018-08-25T10:15:33.322Z,42.62
2018-08-25T10:18:01.622Z,42.79
2018-08-25T10:20:29.999Z,42.90
2018-08-25T10:22:58.336Z,43.71
2018-08-25T10:25:26.574Z,43.58
2018-08-25T10:27:54.835Z,43.21
2018-08-25T10:30:23.167Z,43.67
2018-08-25T10:32:51.423Z,43.51
2018-08-25T10:35:19.738Z,43.51
2018-08-25T10:37:48.010Z,42.70
2018-08-25T10:40:16.290Z,43.42
2018-08-25T10:42:44.583Z,42.70
2018-08-25T10:45:12.862Z,42.71
2018-08-25T10:47:41.501Z,43.43
2018-08-25T10:50:09.786Z,42.61
2018-08-25T10:52:38.241Z,42.80
2018-08-25T10:55:06.582Z,42.98
2018-08-25T10:57:34.906Z,42.78
2018-08-25T11:00:03.358Z,43.39
2018-08-25T11:02:31.598Z,42.58
2018-08-25T11:04:59.914Z,43.39
2018-08-25T11:07:28.190Z,43.08
2018-08-25T11:09:56.452Z,42.62
2018-08-25T11:12:24.755Z,42.57
2018-08-25T11:14:53.073Z,42.45
2018-08-25T11:17:21.498Z,42.73
2018-08-25T11:19:50.192Z,43.14
2018-08-25T11:22:18.490Z,42.87
2018-08-25T11:24:46.762Z,42.70
2018-08-25T11:27:15.193Z,42.62
2018-08-25T11:29:43.519Z,42.76
2018-08-25T11:32:11.925Z,43.20
2018-08-25T11:34:40.286Z,42.58
2018-08-25T11:37:08.709Z,42.99
2018-08-25T11:39:37.059Z,43.60
2018-08-25T11:42:05.479Z,43.51
2018-08-25T11:44:33.747Z,43.59
2018-08-25T11:47:06.183Z,43.07
2018-08-25T11:49:34.471Z,43.02
2018-08-25T11:52:02.790Z,43.82
2018-08-25T11:54:31.088Z,43.17
2018-08-25T11:56:59.482Z,43.79
2018-08-25T11:59:27.746Z,44.11
2018-08-25T12:01:56.122Z,43.29
2018-08-25T12:04:24.403Z,44.19
2018-08-25T12:06:52.696Z,43.50
2018-08-25T12:09:20.971Z,43.70
2018-08-25T12:11:49.261Z,43.66
2018-08-25T12:14:17.690Z,44.11
2018-08-25T12:16:45.966Z,43.85
2018-08-25T12:19:14.230Z,43.88
2018-08-25T12:21:42.518Z,44.17
2018-08-25T12:24:10.886Z,43.91
2018-08-25T12:26:39.115Z,44.64
2018-08-25T12:29:07.698Z,44.00
2018-08-25T12:31:36.054Z,44.63
2018-08-25T12:34:04.370Z,44.97
2018-08-25T12:36:32.678Z,44.62
2018-08-25T12:39:01.072Z,44.82
2018-08-25T12:41:29.407Z,44.97
2018-08-25T12:43:57.674Z,44.36
2018-08-25T12:46:25.945Z,44.67
2018-08-25T12:48:54.257Z,44.56
2018-08-25T12:51:22.500Z,45.25
2018-08-25T12:53:51.262Z,44.62
2018-08-25T12:56:19.607Z,44.67
2018-08-25T12:58:47.886Z,44.60
2018-08-25T13:01:16.177Z,45.12
2018-08-25T13:03:44.439Z,44.58
2018-08-25T13:06:12.803Z,44.88
2018-08-25T13:08:41.094Z,44.84
2018-08-25T13:11:09.406Z,45.17
2018-08-25T13:13:37.787Z,44.79
2018-08-25T13:16:06.151Z,44.95
2018-08-25T13:18:34.516Z,44.09
2018-08-25T13:21:02.838Z,43.92
2018-08-25T13:23:31.174Z,44.27
2018-08-25T13:25:59.495Z,44.39
2018-08-25T13:28:27.986Z,43.78
2018-08-25T13:30:56.332Z,44.47
2018-08-25T13:33:24.699Z,44.82
2018-08-25T13:35:53.053Z,44.03
2018-08-25T13:38:21.419Z,44.14
2018-08-25T13:40:49.832Z,44.46
2018-08-25T13:43:18.156Z,44.86
2018-08-25T13:45:46.616Z,43.97
2018-08-25T13:48:14.953Z,44.45
2018-08-25T13:50:43.271Z,44.14
2018-08-25T13:53:11.607Z,44.14
2018-08-25T13:55:39.989Z,44.24
2018-08-25T13:58:08.333Z,43.84
2018-08-25T14:00:36.622Z,43.99
2018-08-25T14:03:04.975Z,44.64
2018-08-25T14:05:33.300Z,44.71
2018-08-25T14:08:01.777Z,44.48
2018-08-25T14:10:30.071Z,44.39
2018-08-25T14:12:58.488Z,44.94
2018-08-25T14:15:27.719Z,44.54
2018-08-25T14:17:56.072Z,44.50
2018-08-25T14:20:24.410Z,44.72
2018-08-25T14:22:52.827Z,44.78
2018-08-25T14:25:21.204Z,45.27
2018-08-25T14:27:49.553Z,44.79
2018-08-25T14:30:17.939Z,44.72
2018-08-25T14:32:46.332Z,44.87
2018-08-25T14:35:14.759Z,44.90
2018-08-25T14:37:43.095Z,45.22
2018-08-25T14:40:11.479Z,45.54
2018-08-25T14:42:39.850Z,45.81
2018-08-25T14:45:08.207Z,45.08
2018-08-25T14:47:36.549Z,45.99
2018-08-25T14:50:04.879Z,45.93
2018-08-25T14:52:33.262Z,46.08
2018-08-25T14:55:01.623Z,44.88
2018-08-25T14:57:30.019Z,46.02
2018-08-25T14:59:58.314Z,45.25
2018-08-25T15:02:26.651Z,46.02
2018-08-25T15:04:54.975Z,45.06
2018-08-25T15:07:23.315Z,45.00
2018-08-25T15:09:51.626Z,44.92
2018-08-25T15:12:19.955Z,45.33
2018-08-25T15:14:48.314Z,44.44
2018-08-25T15:17:16.702Z,44.34
2018-08-25T15:19:45.488Z,44.73
2018-08-25T15:22:13.883Z,44.60
2018-08-25T15:24:42.290Z,44.86
2018-08-25T15:27:10.677Z,44.36
2018-08-25T15:29:38.975Z,45.09
2018-08-25T15:32:07.275Z,44.22
2018-08-25T15:34:35.621Z,44.97
2018-08-25T15:37:04.628Z,44.93
2018-08-25T15:39:32.976Z,45.11
2018-08-25T15:42:01.311Z,44.18
2018-08-25T15:44:29.650Z,44.15
2018-08-25T15:46:57.960Z,44.31
2018-08-25T15:49:26.388Z,44.87
2018-08-25T15:51:54.778Z,44.63
2018-08-25T15:54:23.023Z,44.86
2018-08-25T15:56:51.325Z,44.88
2018-08-25T15:59:19.655Z,44.14
2018-08-25T16:01:47.943Z,43.87
2018-08-25T16:04:16.286Z,44.21
2018-08-25T16:06:44.607Z,43.86
2018-08-25T16:09:13.007Z,43.79
2018-08-25T16:11:41.373Z,43.77
2018-08-25T16:14:09.631Z,43.72
2018-08-25T16:16:37.952Z,44.60
2018-08-25T16:19:06.322Z,44.50
2018-08-25T16:21:34.604Z,44.37
2018-08-25T16:24:03.002Z,44.35
2018-08-25T16:26:31.310Z,43.64
2018-08-25T16:28:59.653Z,44.27
2018-08-25T16:31:27.962Z,44.27
2018-08-25T16:33:56.362Z,45.16
2018-08-25T16:36:24.709Z,45.91
2018-08-25T16:38:53.023Z,45.09
2018-08-25T16:41:21.322Z,45.48
2018-08-25T16:43:49.650Z,45.64
2018-08-25T16:46:17.966Z,46.67
2018-08-25T16:48:46.314Z,45.48
2018-08-25T16:51:14.635Z,46.44
2018-08-25T16:53:42.970Z,45.51
2018-08-25T16:56:11.307Z,45.60
2018-08-25T16:58:40.695Z,46.20
2018-08-25T17:01:08.984Z,45.60
2018-08-25T17:03:37.308Z,45.33
2018-08-25T17:06:05.826Z,45.65
2018-08-25T17:08:34.162Z,46.14
2018-08-25T17:11:02.549Z,45.40
2018-08-25T17:13:30.879Z,46.36
2018-08-25T17:15:59.164Z,46.23
2018-08-25T17:18:27.523Z,45.64
2018-08-25T17:20:56.068Z,46.49
2018-08-25T17:23:24.366Z,46.14
2018-08-25T17:25:52.694Z,46.17
2018-08-25T17:28:20.991Z,45.72
2018-08-25T17:30:49.344Z,45.99
2018-08-25T17:33:17.685Z,45.82
2018-08-25T17:35:45.974Z,46.49
2018-08-25T17:38:14.282Z,47.01
2018-08-25T17:40:43.612Z,46.50
2018-08-25T17:43:11.947Z,46.34
2018-08-25T17:45:40.266Z,46.31
2018-08-25T17:48:08.610Z,47.09
2018-08-25T17:50:36.954Z,46.26
2018-08-25T17:53:05.251Z,47.12
2018-08-25T17:55:33.590Z,47.34
2018-08-25T17:58:01.909Z,47.52
2018-08-25T18:00:30.227Z,46.88
2018-08-25T18:02:58.582Z,47.33
2018-08-25T18:05:26.916Z,47.52
2018-08-25T18:07:55.323Z,48.12
2018-08-25T18:10:23.654Z,48.20
2018-08-25T18:12:51.974Z,48.03
2018-08-25T18:15:20.355Z,48.10
2018-08-25T18:17:48.735Z,48.00
2018-08-25T18:20:17.033Z,48.14
2018-08-25T18:22:46.191Z,47.89
2018-08-25T18:25:14.623Z,47.29
2018-08-25T18:27:42.911Z,47.41
2018-08-25T18:30:11.272Z,47.68
2018-08-25T18:32:39.571Z,47.76
2018-08-25T18:35:07.955Z,47.64
2018-08-25T18:37:36.268Z,46.94
2018-08-25T18:40:04.643Z,47.56
2018-08-25T18:42:33.055Z,47.17
2018-08-25T18:45:01.450Z,47.27
2018-08-25T18:47:29.822Z,47.28
2018-08-25T18:49:58.259Z,47.26
2018-08-25T18:52:26.634Z,47.05
2018-08-25T18:54:55.047Z,47.78
2018-08-25T18:57:23.306Z,48.03
2018-08-25T18:59:51.652Z,48.07
2018-08-25T19:02:20.144Z,48.10
2018-08-25T19:04:49.419Z,48.09
2018-08-25T19:07:17.746Z,47.35
2018-08-25T19:09:46.074Z,47.28
2018-08-25T19:12:14.458Z,47.32
2018-08-25T19:14:42.787Z,47.34
2018-08-25T19:17:11.162Z,48.07
2018-08-25T19:19:39.537Z,47.64
2018-08-25T19:22:07.874Z,47.42
2018-08-25T19:24:36.206Z,47.32
2018-08-25T19:27:04.627Z,47.82
2018-08-25T19:29:32.946Z,47.76
2018-08-25T19:32:01.288Z,47.97
2018-08-25T19:34:29.724Z,47.80
2018-08-25T19:36:58.151Z,47.52
2018-08-25T19:39:26.598Z,47.05
2018-08-25T19:41:54.958Z,47.87
2018-08-25T19:44:23.627Z,46.91
2018-08-25T19:46:52.933Z,47.37
2018-08-25T19:49:21.495Z,47.56
2018-08-25T19:51:50.508Z,47.32
2018-08-25T19:54:19.290Z,47.67
2018-08-25T19:56:48.461Z,48.78
2018-08-25T19:59:17.414Z,47.87
2018-08-25T20:01:45.903Z,48.12
2018-08-25T20:04:14.379Z,48.97
2018-08-25T20:06:42.874Z,48.80
2018-08-25T20:09:11.267Z,48.59
2018-08-25T20:11:39.820Z,49.02
2018-08-25T20:14:08.276Z,48.73
2018-08-25T20:16:36.715Z,48.24
2018-08-25T20:19:05.310Z,48.60
2018-08-25T20:21:33.798Z,49.31
2018-08-25T20:24:02.325Z,48.59
2018-08-25T20:26:30.645Z,47.88
2018-08-25T20:28:58.979Z,47.89
2018-08-25T20:31:27.417Z,47.51
2018-08-25T20:33:56.011Z,47.69
2018-08-25T20:36:25.379Z,47.53
2018-08-25T20:38:53.978Z,47.94
2018-08-25T20:41:22.448Z,48.87
2018-08-25T20:43:50.870Z,48.05
2018-08-25T20:46:19.231Z,48.56
2018-08-25T20:48:47.732Z,47.70
2018-08-25T20:51:16.238Z,48.20
2018-08-25T20:53:44.724Z,48.30
2018-08-25T20:56:13.182Z,47.70
2018-08-25T20:58:41.523Z,47.64
2018-08-25T21:01:09.880Z,47.71
2018-08-25T21:03:38.302Z,47.88
2018-08-25T21:06:06.662Z,48.49
2018-08-25T21:08:35.052Z,48.48
2018-08-25T21:11:03.427Z,48.07
2018-08-25T21:13:31.738Z,48.40
2018-08-25T21:16:00.115Z,47.72
2018-08-25T21:18:28.394Z,48.64
2018-08-25T21:20:56.762Z,48.06
2018-08-25T21:23:25.154Z,48.88
2018-08-25T21:25:53.519Z,47.83
2018-08-25T21:28:21.940Z,48.73
2018-08-25T21:30:50.348Z,48.82
2018-08-25T21:33:18.839Z,47.99
2018-08-25T21:35:47.230Z,48.69
2018-08-25T21:38:15.736Z,48.50
2018-08-25T21:40:44.223Z,49.13
2018-08-25T21:43:12.714Z,48.52
2018-08-25T21:45:41.167Z,48.66
2018-08-25T21:48:09.739Z,48.23
2018-08-25T21:50:38.255Z,48.81
2018-08-25T21:53:06.637Z,48.19
2018-08-25T21:55:35.089Z,48.77
2018-08-25T21:58:03.590Z,48.01
2018-08-25T22:00:31.958Z,47.84
2018-08-25T22:03:01.139Z,48.11
2018-08-25T22:05:29.651Z,47.97
2018-08-25T22:07:58.132Z,48.04
2018-08-25T22:10:27.663Z,47.97
2018-08-25T22:12:56.092Z,47.93
2018-08-25T22:15:24.467Z,48.07
2018-08-25T22:17:52.852Z,48.60
2018-08-25T22:20:21.243Z,48.06
2018-08-25T22:22:49.721Z,48.05
2018-08-25T22:25:18.207Z,49.06
2018-08-25T22:27:46.583Z,48.80
2018-08-25T22:30:14.998Z,48.60
2018-08-25T22:32:43.434Z,47.77
2018-08-25T22:35:11.898Z,48.35
2018-08-25T22:37:40.295Z,47.86
2018-08-25T22:40:08.747Z,48.79
2018-08-25T22:42:37.279Z,48.36
2018-08-25T22:45:05.750Z,48.61
2018-08-25T22:47:34.173Z,47.69
2018-08-25T22:50:02.578Z,48.45
2018-08-25T22:52:36.117Z,48.67
2018-08-25T22:55:04.555Z,48.50
2018-08-25T22:57:32.836Z,48.17
2018-08-25T23:00:01.211Z,47.59
2018-08-25T23:02:32.470Z,47.69
2018-08-25T23:05:03.843Z,47.61
2018-08-25T23:07:32.294Z,48.36
2018-08-25T23:10:00.659Z,48.17
2018-08-25T23:12:28.942Z,48.10
2018-08-25T23:14:57.278Z,47.48
2018-08-25T23:17:25.685Z,48.04
2018-08-25T23:19:53.934Z,47.92
2018-08-25T23:22:22.235Z,47.56
2018-08-25T23:24:50.574Z,48.16
2018-08-25T23:27:18.918Z,48.46
2018-08-25T23:29:47.298Z,48.37
2018-08-25T23:32:15.602Z,48.00
2018-08-25T23:34:43.935Z,48.07
2018-08-25T23:37:12.273Z,47.85
2018-08-25T23:39:40.567Z,48.57
2018-08-25T23:42:08.838Z,47.93
2018-08-25T23:44:37.238Z,48.41
2018-08-25T23:47:05.642Z,48.66
2018-08-25T23:49:33.999Z,48.87
2018-08-25T23:52:02.332Z,48.70
2018-08-25T23:54:30.659Z,48.47
2018-08-25T23:56:58.966Z,48.98
2018-08-25T23:59:27.374Z,48.27
